createdAt,value
2023-01-21T00:00:48.194Z,98927.28
2023-01-21T00:03:50.820Z,98929.56
2023-01-21T00:06:53.435Z,98944.13
2023-01-21T00:09:57.373Z,98946.09
2023-01-21T00:12:59.814Z,98941.53
2023-01-21T00:16:02.439Z,98935.22
2023-01-21T00:19:05.245Z,98940.75
2023-01-21T00:22:08.053Z,98940.25
2023-01-21T00:25:12.229Z,98934.88
2023-01-21T00:28:14.812Z,98951.56
2023-01-21T00:31:17.538Z,98941.97
2023-01-21T00:34:20.096Z,98947.91
2023-01-21T00:37:22.655Z,98949.53
2023-01-21T00:40:27.245Z,98946.34
2023-01-21T00:43:30.353Z,98951.81
2023-01-21T00:46:33.095Z,98954.59
2023-01-21T00:49:35.926Z,98958.09
2023-01-21T00:52:38.881Z,98951.06
2023-01-21T00:55:42.760Z,98951.66
2023-01-21T00:58:45.496Z,98960.53
2023-01-21T01:01:48.241Z,98967.75
2023-01-21T01:04:50.840Z,98966.59
2023-01-21T01:07:53.757Z,98959.81
2023-01-21T01:10:57.591Z,98972.44
2023-01-21T01:14:00.469Z,98969.03
2023-01-21T01:17:03.066Z,98969.94
2023-01-21T01:20:06.785Z,98971.81
2023-01-21T01:23:09.427Z,98964.47
2023-01-21T01:26:15.563Z,98977.19
2023-01-21T01:29:18.588Z,98974.66
2023-01-21T01:32:21.322Z,98977.22
2023-01-21T01:35:24.139Z,98981.28
2023-01-21T01:38:26.808Z,98972.81
2023-01-21T01:41:32.692Z,98976.03
2023-01-21T01:44:56.409Z,98971.06
2023-01-21T01:48:01.699Z,98976.72
2023-01-21T01:51:07.337Z,98985.00
2023-01-21T01:54:11.693Z,98990.84
2023-01-21T01:57:18.154Z,98986.31
2023-01-21T02:00:21.840Z,98991.50
2023-01-21T02:03:41.983Z,98997.41
2023-01-21T02:06:45.720Z,98996.16
2023-01-21T02:09:48.497Z,99007.22
2023-01-21T02:12:52.707Z,99006.06
2023-01-21T02:16:04.708Z,99012.88
2023-01-21T02:19:25.896Z,99010.78
2023-01-21T02:22:31.177Z,99009.00
2023-01-21T02:25:57.134Z,99021.31
2023-01-21T02:29:21.473Z,99025.47
2023-01-21T02:32:30.094Z,99019.47
2023-01-21T02:35:40.295Z,99020.13
2023-01-21T02:38:47.828Z,99021.94
2023-01-21T02:42:00.490Z,99027.44
2023-01-21T02:45:11.327Z,99026.94
2023-01-21T02:48:17.148Z,99035.38
2023-01-21T02:51:21.123Z,99028.25
2023-01-21T02:54:48.533Z,99037.38
2023-01-21T02:57:53.039Z,99040.28
2023-01-21T03:00:59.381Z,99041.22
2023-01-21T03:04:26.372Z,99040.06
2023-01-21T03:07:33.419Z,99049.81
2023-01-21T03:10:40.444Z,99044.03
2023-01-21T03:14:02.466Z,99056.34
2023-01-21T03:17:09.510Z,99059.22
2023-01-21T03:20:14.556Z,99052.19
2023-01-21T03:23:21.703Z,99066.25
2023-01-21T03:26:27.595Z,99054.53
2023-01-21T03:29:31.573Z,99048.56
2023-01-21T03:32:35.661Z,99050.13
2023-01-21T03:35:41.605Z,99052.19
2023-01-21T03:38:49.671Z,99047.28
2023-01-21T03:41:52.359Z,99061.03
2023-01-21T03:44:55.189Z,99069.94
2023-01-21T03:48:00.697Z,99065.84
2023-01-21T03:51:07.633Z,99060.66
2023-01-21T03:54:11.995Z,99057.34
2023-01-21T03:57:14.490Z,99069.81
2023-01-21T04:00:18.581Z,99062.84
2023-01-21T04:03:21.378Z,99062.78
2023-01-21T04:06:24.669Z,99062.78
2023-01-21T04:09:28.906Z,99073.91
2023-01-21T04:12:31.443Z,99062.09
2023-01-21T04:15:34.045Z,99066.81
2023-01-21T04:18:36.700Z,99070.50
2023-01-21T04:21:39.429Z,99075.66
2023-01-21T04:24:43.561Z,99075.66
2023-01-21T04:27:46.227Z,99079.13
2023-01-21T04:30:49.132Z,99084.41
2023-01-21T04:33:52.985Z,99090.63
2023-01-21T04:36:56.063Z,99087.75
2023-01-21T04:39:59.934Z,99091.41
2023-01-21T04:43:02.654Z,99086.63
2023-01-21T04:46:06.479Z,99086.88
2023-01-21T04:49:08.916Z,99083.44
2023-01-21T04:52:11.697Z,99087.50
2023-01-21T04:55:15.757Z,99078.09
2023-01-21T04:58:18.296Z,99085.47
2023-01-21T05:01:20.963Z,99092.78
2023-01-21T05:04:23.544Z,99101.09
2023-01-21T05:07:26.285Z,99102.56
2023-01-21T05:10:30.283Z,99099.47
2023-01-21T05:13:32.883Z,99104.41
2023-01-21T05:16:35.482Z,99107.63
2023-01-21T05:19:38.466Z,99109.53
2023-01-21T05:22:41.285Z,99113.81
2023-01-21T05:25:45.227Z,99126.75
2023-01-21T05:28:47.919Z,99113.88
2023-01-21T05:31:50.778Z,99116.75
2023-01-21T05:34:53.416Z,99117.53
2023-01-21T05:37:56.117Z,99122.50
2023-01-21T05:41:01.037Z,99119.84
2023-01-21T05:44:03.587Z,99120.88
2023-01-21T05:47:07.652Z,99125.03
2023-01-21T05:50:11.577Z,99132.44
2023-01-21T05:53:14.379Z,99135.06
2023-01-21T05:56:18.334Z,99128.97
2023-01-21T05:59:20.929Z,99139.63
2023-01-21T06:02:23.724Z,99141.88
2023-01-21T06:05:26.467Z,99155.66
2023-01-21T06:08:29.136Z,99160.81
2023-01-21T06:11:33.798Z,99159.94
2023-01-21T06:14:38.649Z,99154.25
2023-01-21T06:17:41.715Z,99157.88
2023-01-21T06:20:44.324Z,99160.94
2023-01-21T06:23:47.343Z,99163.94
2023-01-21T06:26:51.323Z,99171.88
2023-01-21T06:29:53.935Z,99165.28
2023-01-21T06:32:56.538Z,99178.47
2023-01-21T06:35:59.321Z,99173.84
2023-01-21T06:39:01.910Z,99179.69
2023-01-21T06:42:06.029Z,99194.94
2023-01-21T06:45:09.479Z,99194.72
2023-01-21T06:48:12.193Z,99196.31
2023-01-21T06:51:15.289Z,99204.47
2023-01-21T06:54:17.924Z,99204.78
2023-01-21T06:57:21.974Z,99208.91
2023-01-21T07:00:24.551Z,99213.44
2023-01-21T07:03:27.399Z,99217.47
2023-01-21T07:06:30.443Z,99220.81
2023-01-21T07:09:33.612Z,99230.13
2023-01-21T07:12:37.764Z,99229.31
2023-01-21T07:15:40.970Z,99227.66
2023-01-21T07:18:43.743Z,99239.94
2023-01-21T07:21:46.389Z,99249.94
2023-01-21T07:24:49.069Z,99259.09
2023-01-21T07:27:53.228Z,99265.13
2023-01-21T07:30:56.492Z,99277.19
2023-01-21T07:33:59.249Z,99276.59
2023-01-21T07:37:02.085Z,99280.44
2023-01-21T07:40:05.446Z,99284.53
2023-01-21T07:43:09.889Z,99284.00
2023-01-21T07:46:12.604Z,99280.78
2023-01-21T07:49:17.455Z,99284.91
2023-01-21T07:52:20.297Z,99277.22
2023-01-21T07:55:23.209Z,99286.38
2023-01-21T07:58:27.499Z,99284.09
2023-01-21T08:01:32.468Z,99287.16
2023-01-21T08:04:35.010Z,99286.97
2023-01-21T08:07:38.432Z,99282.69
2023-01-21T08:10:41.216Z,99281.94
2023-01-21T08:14:07.179Z,99290.84
2023-01-21T08:17:09.973Z,99287.69
2023-01-21T08:20:14.166Z,99281.13
2023-01-21T08:23:17.335Z,99285.63
2023-01-21T08:26:20.059Z,99288.34
2023-01-21T08:29:24.187Z,99290.34
2023-01-21T08:32:26.963Z,99292.97
2023-01-21T08:35:29.745Z,99290.72
2023-01-21T08:38:32.363Z,99291.97
2023-01-21T08:41:35.271Z,99294.44
2023-01-21T08:44:39.273Z,99292.00
2023-01-21T08:47:42.075Z,99290.97
2023-01-21T08:50:44.851Z,99289.59
2023-01-21T08:53:49.875Z,99290.63
2023-01-21T08:56:52.506Z,99289.09
2023-01-21T08:59:56.423Z,99287.72
2023-01-21T09:02:59.892Z,99290.53
2023-01-21T09:06:02.839Z,99288.78
2023-01-21T09:09:05.520Z,99294.47
2023-01-21T09:12:08.856Z,99290.63
2023-01-21T09:15:12.906Z,99282.34
2023-01-21T09:18:15.736Z,99285.25
2023-01-21T09:21:18.559Z,99291.22
2023-01-21T09:24:21.238Z,99298.41
2023-01-21T09:27:27.253Z,99298.19
2023-01-21T09:30:31.326Z,99303.25
2023-01-21T09:33:36.508Z,99300.91
2023-01-21T09:36:39.942Z,99302.94
2023-01-21T09:39:42.801Z,99309.72
2023-01-21T09:42:47.266Z,99312.88
2023-01-21T09:45:51.888Z,99321.91
2023-01-21T09:48:55.552Z,99318.56
2023-01-21T09:52:07.285Z,99308.91
2023-01-21T09:55:16.728Z,99317.75
2023-01-21T09:58:23.903Z,99321.22
2023-01-21T10:01:32.767Z,99326.50
2023-01-21T10:04:42.121Z,99314.53
2023-01-21T10:07:47.184Z,99314.09
2023-01-21T10:10:52.636Z,99321.56
2023-01-21T10:14:09.180Z,99309.28
2023-01-21T10:17:16.951Z,99312.34
2023-01-21T10:20:24.465Z,99318.22
2023-01-21T10:23:28.902Z,99316.59
2023-01-21T10:26:33.013Z,99314.72
2023-01-21T10:29:36.820Z,99319.19
2023-01-21T10:32:40.564Z,99323.81
2023-01-21T10:35:53.989Z,99317.63
2023-01-21T10:39:03.090Z,99320.84
2023-01-21T10:42:17.310Z,99317.16
2023-01-21T10:45:23.100Z,99311.22
2023-01-21T10:48:34.546Z,99313.94
2023-01-21T10:51:41.773Z,99307.81
2023-01-21T10:54:49.035Z,99316.91
2023-01-21T10:57:56.770Z,99311.16
2023-01-21T11:01:01.921Z,99309.63
2023-01-21T11:04:12.528Z,99308.84
2023-01-21T11:07:19.222Z,99304.69
2023-01-21T11:10:24.123Z,99296.69
2023-01-21T11:13:26.704Z,99299.53
2023-01-21T11:16:35.202Z,99291.28
2023-01-21T11:19:39.200Z,99297.88
2023-01-21T11:22:45.636Z,99303.09
2023-01-21T11:25:49.490Z,99302.63
2023-01-21T11:29:05.094Z,99301.34
2023-01-21T11:32:19.665Z,99284.59
2023-01-21T11:35:24.355Z,99283.78
2023-01-21T11:38:33.747Z,99278.72
2023-01-21T11:41:37.468Z,99283.81
2023-01-21T11:44:52.186Z,99269.47
2023-01-21T11:47:55.816Z,99270.69
2023-01-21T11:51:08.885Z,99274.75
2023-01-21T11:54:14.898Z,99276.38
2023-01-21T11:57:24.132Z,99269.16
2023-01-21T12:00:28.283Z,99272.09
2023-01-21T12:03:33.951Z,99266.31
2023-01-21T12:06:37.987Z,99264.03
2023-01-21T12:09:40.820Z,99261.53
2023-01-21T12:12:53.037Z,99260.06
2023-01-21T12:16:28.593Z,99260.28
2023-01-21T12:19:42.776Z,99257.94
2023-01-21T12:22:49.666Z,99257.25
2023-01-21T12:25:58.006Z,99258.88
2023-01-21T12:29:10.827Z,99255.34
2023-01-21T12:32:16.876Z,99250.25
2023-01-21T12:35:25.610Z,99246.53
2023-01-21T12:38:32.613Z,99253.78
2023-01-21T12:41:35.778Z,99253.69
2023-01-21T12:44:43.764Z,99260.31
2023-01-21T12:47:51.383Z,99254.66
2023-01-21T12:50:58.005Z,99255.97
2023-01-21T12:54:09.763Z,99264.13
2023-01-21T12:57:17.682Z,99257.50
2023-01-21T13:00:23.621Z,99250.13
2023-01-21T13:03:30.724Z,99261.75
2023-01-21T13:06:52.294Z,99259.72
2023-01-21T13:10:04.578Z,99260.19
2023-01-21T13:13:13.321Z,99263.19
2023-01-21T13:16:16.263Z,99266.44
2023-01-21T13:19:18.838Z,99255.78
2023-01-21T13:22:33.468Z,99259.78
2023-01-21T13:25:44.413Z,99262.50
2023-01-21T13:28:50.596Z,99274.41
2023-01-21T13:32:14.444Z,99271.63
2023-01-21T13:35:29.440Z,99275.16
2023-01-21T13:38:35.012Z,99271.34
2023-01-21T13:41:47.965Z,99274.94
2023-01-21T13:45:25.665Z,99285.56
2023-01-21T13:48:45.638Z,99281.91
2023-01-21T13:51:55.965Z,99277.22
2023-01-21T13:55:11.441Z,99285.19
2023-01-21T13:58:16.844Z,99289.59
2023-01-21T14:01:21.447Z,99288.44
2023-01-21T14:04:28.332Z,99286.75
2023-01-21T14:07:34.441Z,99296.47
2023-01-21T14:10:40.576Z,99282.81
2023-01-21T14:14:00.941Z,99296.34
2023-01-21T14:17:12.717Z,99292.13
2023-01-21T14:20:49.039Z,99300.38
2023-01-21T14:24:15.422Z,99289.50
2023-01-21T14:27:26.088Z,99292.84
2023-01-21T14:30:32.497Z,99296.28
2023-01-21T14:33:44.099Z,99290.72
2023-01-21T14:36:54.085Z,99297.09
2023-01-21T14:40:04.411Z,99300.81
2023-01-21T14:43:07.053Z,99309.56
2023-01-21T14:46:32.982Z,99319.06
2023-01-21T14:49:43.274Z,99312.94
2023-01-21T14:52:46.925Z,99315.81
2023-01-21T14:56:28.894Z,99316.69
2023-01-21T14:59:35.027Z,99323.94
2023-01-21T15:02:43.039Z,99320.25
2023-01-21T15:05:50.408Z,99313.34
2023-01-21T15:08:56.454Z,99324.88
2023-01-21T15:12:01.945Z,99328.81
2023-01-21T15:15:30.998Z,99332.19
2023-01-21T15:18:37.732Z,99333.88
2023-01-21T15:21:44.711Z,99336.94
2023-01-21T15:25:21.029Z,99338.22
2023-01-21T15:28:43.671Z,99340.06
2023-01-21T15:31:48.342Z,99340.91
2023-01-21T15:34:53.636Z,99338.34
2023-01-21T15:38:02.752Z,99344.94
2023-01-21T15:41:09.759Z,99342.16
2023-01-21T15:44:26.607Z,99343.34
2023-01-21T15:47:50.773Z,99343.59
2023-01-21T15:50:57.698Z,99348.94
2023-01-21T15:54:15.872Z,99344.50
2023-01-21T15:57:33.686Z,99343.56
2023-01-21T16:00:39.249Z,99344.03
2023-01-21T16:03:48.651Z,99346.25
2023-01-21T16:07:02.941Z,99353.16
2023-01-21T16:10:13.873Z,99359.34
2023-01-21T16:13:19.668Z,99356.66
2023-01-21T16:16:32.564Z,99358.78
2023-01-21T16:19:40.084Z,99360.16
2023-01-21T16:22:45.864Z,99361.69
2023-01-21T16:25:49.781Z,99371.63
2023-01-21T16:28:52.653Z,99369.03
2023-01-21T16:31:59.972Z,99367.53
2023-01-21T16:35:04.323Z,99372.66
2023-01-21T16:38:06.922Z,99372.75
2023-01-21T16:41:22.454Z,99378.66
2023-01-21T16:44:26.964Z,99376.53
2023-01-21T16:47:32.642Z,99376.88
2023-01-21T16:50:36.973Z,99380.03
2023-01-21T16:53:39.801Z,99380.72
2023-01-21T16:56:48.379Z,99381.75
2023-01-21T16:59:52.906Z,99378.97
2023-01-21T17:02:55.832Z,99384.22
2023-01-21T17:06:01.469Z,99377.09
2023-01-21T17:09:05.994Z,99391.25
2023-01-21T17:12:10.897Z,99384.94
2023-01-21T17:15:18.600Z,99393.47
2023-01-21T17:18:23.012Z,99396.97
2023-01-21T17:21:33.944Z,99401.28
2023-01-21T17:24:39.431Z,99404.31
2023-01-21T17:27:43.934Z,99409.00
2023-01-21T17:30:47.414Z,99404.06
2023-01-21T17:34:06.415Z,99410.25
2023-01-21T17:37:42.220Z,99418.44
2023-01-21T17:40:46.842Z,99413.56
2023-01-21T17:43:51.289Z,99412.38
2023-01-21T17:46:55.841Z,99405.69
2023-01-21T17:50:01.327Z,99419.13
2023-01-21T17:53:07.378Z,99416.44
2023-01-21T17:56:10.020Z,99410.38
2023-01-21T17:59:27.381Z,99430.00
2023-01-21T18:02:30.804Z,99424.19
2023-01-21T18:05:33.721Z,99423.94
2023-01-21T18:08:37.930Z,99429.19
2023-01-21T18:11:40.493Z,99425.31
2023-01-21T18:14:43.355Z,99414.69
2023-01-21T18:17:47.889Z,99420.19
2023-01-21T18:20:50.657Z,99417.75
2023-01-21T18:23:54.786Z,99425.81
2023-01-21T18:26:57.830Z,99419.75
2023-01-21T18:30:01.765Z,99415.63
2023-01-21T18:33:04.499Z,99414.94
2023-01-21T18:36:10.639Z,99418.81
2023-01-21T18:39:17.362Z,99411.31
2023-01-21T18:42:24.076Z,99412.38
2023-01-21T18:45:28.151Z,99411.56
2023-01-21T18:48:33.747Z,99422.28
2023-01-21T18:51:36.823Z,99411.44
2023-01-21T18:54:40.749Z,99404.91
2023-01-21T18:57:43.509Z,99407.94
2023-01-21T19:00:46.365Z,99413.88
2023-01-21T19:03:49.163Z,99401.63
2023-01-21T19:06:55.572Z,99409.25
2023-01-21T19:09:59.837Z,99400.47
2023-01-21T19:13:03.011Z,99399.53
2023-01-21T19:16:06.548Z,99402.22
2023-01-21T19:19:12.004Z,99399.56
2023-01-21T19:22:16.800Z,99394.16
2023-01-21T19:25:22.114Z,99392.75
2023-01-21T19:28:24.895Z,99393.22
2023-01-21T19:31:28.055Z,99390.66
2023-01-21T19:34:30.721Z,99387.50
2023-01-21T19:37:33.789Z,99389.00
2023-01-21T19:40:38.864Z,99396.94
2023-01-21T19:43:42.149Z,99395.56
2023-01-21T19:46:45.334Z,99399.44
2023-01-21T19:49:48.309Z,99391.25
2023-01-21T19:52:52.394Z,99388.91
2023-01-21T19:55:56.800Z,99394.88
2023-01-21T19:58:59.558Z,99396.50
2023-01-21T20:02:02.436Z,99400.59
2023-01-21T20:05:05.866Z,99395.91
2023-01-21T20:08:11.590Z,99395.44
2023-01-21T20:11:16.484Z,99395.56
2023-01-21T20:14:19.159Z,99389.13
2023-01-21T20:17:22.414Z,99400.13
2023-01-21T20:20:26.585Z,99404.56
2023-01-21T20:23:32.625Z,99400.00
2023-01-21T20:26:37.205Z,99398.94
2023-01-21T20:29:44.644Z,99403.13
2023-01-21T20:32:52.681Z,99400.81
2023-01-21T20:35:57.116Z,99403.72
2023-01-21T20:38:59.898Z,99401.50
2023-01-21T20:42:04.727Z,99405.81
2023-01-21T20:45:09.235Z,99403.28
2023-01-21T20:48:19.935Z,99407.69
2023-01-21T20:51:23.036Z,99407.34
2023-01-21T20:54:26.739Z,99412.56
2023-01-21T20:57:31.278Z,99405.94
2023-01-21T21:00:35.961Z,99407.47
2023-01-21T21:03:38.746Z,99400.94
2023-01-21T21:06:45.774Z,99410.38
2023-01-21T21:09:48.447Z,99408.16
2023-01-21T21:12:53.206Z,99406.88
2023-01-21T21:15:56.026Z,99409.34
2023-01-21T21:19:00.723Z,99399.03
2023-01-21T21:22:05.318Z,99400.91
2023-01-21T21:25:09.202Z,99409.69
2023-01-21T21:28:13.878Z,99401.94
2023-01-21T21:31:17.891Z,99400.91
2023-01-21T21:34:23.936Z,99399.03
2023-01-21T21:37:26.994Z,99389.47
2023-01-21T21:40:30.479Z,99387.25
2023-01-21T21:43:35.399Z,99391.59
2023-01-21T21:46:56.455Z,99387.88
2023-01-21T21:49:59.202Z,99390.97
2023-01-21T21:53:02.016Z,99384.00
2023-01-21T21:56:06.217Z,99392.41
2023-01-21T21:59:12.033Z,99386.81
2023-01-21T22:02:14.839Z,99381.78
2023-01-21T22:05:17.975Z,99370.09
2023-01-21T22:08:21.498Z,99377.13
2023-01-21T22:11:24.502Z,99370.34
2023-01-21T22:14:28.606Z,99352.84
2023-01-21T22:17:31.344Z,99351.41
2023-01-21T22:20:34.281Z,99365.53
2023-01-21T22:23:38.799Z,99362.03
2023-01-21T22:26:41.712Z,99361.72
2023-01-21T22:29:46.015Z,99361.59
2023-01-21T22:32:49.099Z,99360.41
2023-01-21T22:35:51.828Z,99357.16
2023-01-21T22:38:55.774Z,99347.56
2023-01-21T22:42:00.678Z,99353.88
2023-01-21T22:45:06.117Z,99350.38
2023-01-21T22:48:08.993Z,99341.25
2023-01-21T22:51:13.186Z,99346.97
2023-01-21T22:54:15.939Z,99341.28
2023-01-21T22:57:19.215Z,99342.66
2023-01-21T23:00:37.183Z,99340.91
2023-01-21T23:03:40.174Z,99339.97
2023-01-21T23:06:45.541Z,99336.94
2023-01-21T23:09:48.200Z,99333.53
2023-01-21T23:12:51.411Z,99335.44
2023-01-21T23:15:56.187Z,99331.56
2023-01-21T23:18:59.155Z,99330.06
2023-01-21T23:22:02.224Z,99324.94
2023-01-21T23:25:05.241Z,99319.88
2023-01-21T23:28:08.614Z,99319.31
2023-01-21T23:31:15.219Z,99320.25
2023-01-21T23:34:19.332Z,99313.03
2023-01-21T23:37:22.317Z,99311.38
2023-01-21T23:40:25.156Z,99306.59
2023-01-21T23:43:28.917Z,99310.34
2023-01-21T23:46:32.968Z,99304.03
2023-01-21T23:49:36.018Z,99301.94
2023-01-21T23:52:39.666Z,99306.84
2023-01-21T23:55:42.352Z,99305.31
2023-01-21T23:58:45.198Z,99297.59
